Portada
METAR-TAF:

METAR-TAF

Aeroports :

Lahr, Alemanya

latitud: 48-22-09N, longitud: 007-49-40E, altitud: 156 m

Observació

L'informe es va fer fa 29 minuts, a les 13:20 UTC
Vent 4 kt del Nord, variant entre Nord/Nord-Oest i Nord-Est
Temperatura 7°C
Humitat 81%
Pressió 1019 hPa
Visibilitat 10 km o més
sense núvols per sota de 1500 mi sense presència de cumulonimbus.

METAR: EDTL 271320Z 36004KT 330V040 CAVOK 07/04 Q1019

Hora: 14:49 (13:49 UTC)

Pronòstic

L'informe es va fer fa 2 hores i 49 minuts, a les 11:00 UTC
Pronòstic vàlid del 27 a les 12 UTC al 27 a les 21 UTC
Vent 2 kt amb direcció variable
Visibilitat 10 km o més
sense núvols per sota de 1500 mi sense presència de cumulonimbus.
Evolucionant progressivament
l' 27 a les 16 UTC al 27 a les 18 UTC
Visibilitat: 0800 m
Cel ennuvolat a una alçada de 200 ft
boira

TAF: EDTL 271100Z 2712/2721 VRB02KT CAVOK BECMG 2716/2718 0800 FG BKN002

Observacions i pronòstics meteorològics de més de 4000 aeroports (METAR i TAF).

Les estacions disponibles són els punts grocs i vermells al mapa.

Posi el ratolí al punt desitjat per veure el nom de l'estació.

Feu clic per veure les observacions i els pronòstics meteorològics.

Per canviar el mapa: feu clic els botons verds amb una creu de color negre per apropar; al botó verd amb un guió per allunyar la imatge; o en les fletxes verdes per a mapes adjacents.


METAR-TAF: